createdAt,value
2022-10-10T00:00:43.918Z,36.48
2022-10-10T00:02:00.647Z,35.78
2022-10-10T00:03:17.036Z,36.82
2022-10-10T00:04:33.417Z,36.85
2022-10-10T00:05:49.801Z,36.66
2022-10-10T00:07:07.664Z,37.19
2022-10-10T00:08:24.315Z,36.89
2022-10-10T00:09:40.701Z,37.29
2022-10-10T00:10:57.055Z,37.55
2022-10-10T00:12:13.481Z,37.29
2022-10-10T00:13:29.855Z,37.72
2022-10-10T00:14:46.508Z,37.26
2022-10-10T00:16:04.316Z,37.54
2022-10-10T00:17:20.746Z,37.63
2022-10-10T00:18:37.117Z,37.78
2022-10-10T00:19:53.587Z,37.41
2022-10-10T00:21:10.228Z,37.39
2022-10-10T00:22:26.608Z,37.58
2022-10-10T00:23:44.430Z,37.79
2022-10-10T00:25:00.846Z,37.55
2022-10-10T00:26:19.272Z,38.04
2022-10-10T00:27:37.448Z,37.61
2022-10-10T00:28:53.817Z,37.78
2022-10-10T00:30:10.211Z,37.85
2022-10-10T00:31:26.572Z,37.86
2022-10-10T00:32:44.520Z,37.71
2022-10-10T00:34:01.153Z,37.95
2022-10-10T00:35:17.548Z,38.11
2022-10-10T00:36:35.410Z,37.84
2022-10-10T00:37:52.662Z,38.22
2022-10-10T00:39:10.479Z,38.42
2022-10-10T00:40:27.141Z,38.06
2022-10-10T00:41:43.558Z,38.77
2022-10-10T00:43:01.418Z,38.33
2022-10-10T00:44:17.820Z,38.54
2022-10-10T00:45:35.662Z,38.25
2022-10-10T00:46:53.261Z,38.15
2022-10-10T00:48:09.653Z,38.35
2022-10-10T00:49:27.522Z,38.31
2022-10-10T00:50:43.922Z,38.68
2022-10-10T00:52:01.734Z,38.36
2022-10-10T00:53:18.442Z,38.44
2022-10-10T00:54:34.865Z,38.36
2022-10-10T00:55:53.220Z,38.48
2022-10-10T00:57:09.582Z,38.79
2022-10-10T00:58:26.002Z,39.30
2022-10-10T00:59:42.655Z,39.10
2022-10-10T01:00:59.092Z,38.49
2022-10-10T01:02:15.534Z,38.74
2022-10-10T01:03:31.926Z,38.63
2022-10-10T01:04:48.298Z,38.69
2022-10-10T01:06:04.950Z,38.83
2022-10-10T01:07:21.344Z,38.19
2022-10-10T01:08:40.079Z,38.86
2022-10-10T01:09:56.485Z,38.56
2022-10-10T01:11:13.207Z,38.86
2022-10-10T01:12:29.859Z,39.18
2022-10-10T01:13:46.245Z,39.15
2022-10-10T01:15:02.617Z,39.41
2022-10-10T01:16:19.094Z,39.17
2022-10-10T01:17:36.416Z,39.08
2022-10-10T01:18:53.068Z,39.05
2022-10-10T01:20:09.487Z,39.23
2022-10-10T01:21:25.902Z,39.04
2022-10-10T01:22:42.258Z,39.70
2022-10-10T01:24:00.101Z,39.19
2022-10-10T01:25:16.728Z,39.02
2022-10-10T01:26:34.673Z,39.15
2022-10-10T01:27:52.476Z,39.08
2022-10-10T01:29:10.309Z,38.92
2022-10-10T01:30:26.703Z,38.92
2022-10-10T01:31:43.342Z,38.96
2022-10-10T01:32:59.699Z,39.34
2022-10-10T01:34:16.087Z,39.15
2022-10-10T01:35:33.929Z,39.13
2022-10-10T01:36:50.320Z,39.36
2022-10-10T01:38:06.971Z,39.47
2022-10-10T01:39:23.450Z,39.40
2022-10-10T01:40:39.834Z,39.51
2022-10-10T01:41:57.670Z,39.62
2022-10-10T01:43:14.080Z,39.53
2022-10-10T01:44:32.232Z,40.00
2022-10-10T01:45:48.601Z,40.50
2022-10-10T01:47:05.081Z,40.92
2022-10-10T01:48:22.895Z,40.56
2022-10-10T01:49:40.762Z,40.95
2022-10-10T01:50:57.391Z,40.73
2022-10-10T01:52:13.782Z,40.83
2022-10-10T01:53:30.151Z,41.03
2022-10-10T01:54:46.554Z,41.29
2022-10-10T01:56:02.934Z,41.46
2022-10-10T01:57:19.593Z,41.50
2022-10-10T01:58:37.425Z,42.06
2022-10-10T01:59:53.835Z,41.76
2022-10-10T02:01:10.246Z,41.92
2022-10-10T02:02:26.615Z,42.11
2022-10-10T02:03:43.236Z,41.89
2022-10-10T02:04:59.676Z,42.31
2022-10-10T02:06:16.034Z,42.51
2022-10-10T02:07:32.436Z,42.82
2022-10-10T02:08:48.804Z,42.78
2022-10-10T02:10:05.499Z,42.46
2022-10-10T02:11:23.319Z,42.67
2022-10-10T02:12:39.708Z,43.07
2022-10-10T02:13:56.113Z,43.25
2022-10-10T02:15:13.945Z,42.90
2022-10-10T02:16:31.538Z,43.39
2022-10-10T02:17:47.928Z,43.40
2022-10-10T02:19:05.777Z,43.67
2022-10-10T02:20:23.614Z,44.05
2022-10-10T02:21:39.986Z,43.64
2022-10-10T02:22:56.644Z,43.82
2022-10-10T02:24:13.041Z,43.76
2022-10-10T02:25:29.436Z,43.83
2022-10-10T02:26:45.817Z,43.62
2022-10-10T02:28:03.648Z,43.55
2022-10-10T02:29:20.347Z,44.74
2022-10-10T02:30:37.668Z,44.47
2022-10-10T02:31:54.029Z,43.67
2022-10-10T02:33:10.420Z,43.92
2022-10-10T02:34:28.271Z,44.00
2022-10-10T02:35:44.921Z,44.37
2022-10-10T02:37:01.381Z,44.25
2022-10-10T02:38:17.759Z,44.30
2022-10-10T02:39:35.601Z,44.40
2022-10-10T02:40:53.810Z,44.19
2022-10-10T02:42:10.451Z,43.97
2022-10-10T02:43:28.280Z,44.41
2022-10-10T02:44:44.679Z,43.99
2022-10-10T02:46:01.097Z,43.89
2022-10-10T02:47:17.444Z,44.05
2022-10-10T02:48:34.119Z,43.81
2022-10-10T02:49:50.513Z,43.70
2022-10-10T02:51:08.353Z,43.75
2022-10-10T02:52:24.712Z,43.86
2022-10-10T02:53:41.124Z,44.31
2022-10-10T02:54:57.796Z,44.23
2022-10-10T02:56:14.307Z,44.52
2022-10-10T02:57:31.633Z,44.78
2022-10-10T02:58:48.033Z,45.11
2022-10-10T03:00:05.875Z,45.77
2022-10-10T03:01:22.579Z,44.74
2022-10-10T03:02:38.976Z,45.49
2022-10-10T03:03:55.375Z,45.06
2022-10-10T03:05:11.755Z,45.01
2022-10-10T03:06:28.144Z,45.26
2022-10-10T03:07:44.794Z,45.44
2022-10-10T03:09:01.215Z,45.31
2022-10-10T03:10:17.575Z,45.53
2022-10-10T03:11:33.957Z,45.57
2022-10-10T03:12:50.611Z,45.87
2022-10-10T03:14:07.108Z,45.88
2022-10-10T03:15:23.497Z,45.77
2022-10-10T03:16:39.867Z,46.56
2022-10-10T03:17:56.236Z,46.16
2022-10-10T03:19:12.649Z,46.29
2022-10-10T03:20:29.288Z,45.96
2022-10-10T03:21:45.676Z,46.61
2022-10-10T03:23:03.501Z,46.19
2022-10-10T03:24:21.377Z,46.31
2022-10-10T03:25:37.778Z,46.06
2022-10-10T03:26:54.427Z,45.94
2022-10-10T03:28:10.839Z,46.01
2022-10-10T03:29:28.679Z,46.15
2022-10-10T03:30:45.142Z,46.14
2022-10-10T03:32:01.528Z,46.15
2022-10-10T03:33:18.200Z,46.31
2022-10-10T03:34:34.587Z,46.30
2022-10-10T03:35:52.472Z,46.72
2022-10-10T03:37:10.319Z,46.21
2022-10-10T03:38:26.692Z,46.39
2022-10-10T03:39:43.362Z,46.55
2022-10-10T03:40:59.760Z,46.00
2022-10-10T03:42:17.590Z,46.51
2022-10-10T03:43:35.409Z,46.11
2022-10-10T03:44:53.271Z,46.33
2022-10-10T03:46:15.775Z,46.31
2022-10-10T03:47:34.084Z,46.66
2022-10-10T03:48:51.942Z,46.87
2022-10-10T03:50:08.322Z,47.14
2022-10-10T03:51:24.692Z,46.95
2022-10-10T03:52:41.354Z,47.13
2022-10-10T03:53:57.756Z,46.88
2022-10-10T03:55:15.584Z,46.96
2022-10-10T03:56:31.955Z,46.72
2022-10-10T03:57:48.347Z,46.92
2022-10-10T03:59:05.016Z,46.40
2022-10-10T04:00:22.859Z,46.69
2022-10-10T04:01:39.294Z,47.24
2022-10-10T04:02:55.706Z,47.28
2022-10-10T04:04:12.074Z,47.20
2022-10-10T04:05:28.780Z,47.52
2022-10-10T04:06:46.611Z,47.54
2022-10-10T04:08:04.476Z,47.87
2022-10-10T04:09:20.847Z,47.92
2022-10-10T04:10:37.249Z,47.84
2022-10-10T04:11:55.386Z,47.77
2022-10-10T04:13:13.247Z,48.20
2022-10-10T04:14:29.627Z,47.93
2022-10-10T04:15:47.468Z,48.23
2022-10-10T04:17:05.326Z,48.00
2022-10-10T04:18:21.708Z,48.18
2022-10-10T04:19:38.090Z,48.83
2022-10-10T04:20:55.918Z,48.77
2022-10-10T04:22:13.881Z,49.49
2022-10-10T04:23:31.998Z,49.21
2022-10-10T04:24:49.831Z,49.95
2022-10-10T04:26:07.666Z,49.53
2022-10-10T04:27:25.590Z,49.68
2022-10-10T04:28:43.508Z,50.21
2022-10-10T04:30:01.620Z,50.02
2022-10-10T04:31:19.510Z,50.44
2022-10-10T04:32:37.370Z,50.20
2022-10-10T04:33:55.232Z,49.92
2022-10-10T04:35:12.592Z,50.45
2022-10-10T04:36:30.702Z,50.24
2022-10-10T04:37:48.521Z,50.63
2022-10-10T04:39:06.403Z,50.93
2022-10-10T04:40:26.811Z,50.54
2022-10-10T04:41:44.825Z,50.78
2022-10-10T04:43:01.492Z,50.93
2022-10-10T04:44:19.343Z,51.08
2022-10-10T04:45:37.864Z,50.94
2022-10-10T04:46:55.224Z,50.70
2022-10-10T04:48:13.096Z,50.89
2022-10-10T04:49:30.948Z,50.81
2022-10-10T04:50:48.814Z,51.10
2022-10-10T04:52:06.648Z,51.10
2022-10-10T04:53:24.505Z,50.49
2022-10-10T04:54:42.678Z,51.13
2022-10-10T04:56:00.530Z,51.32
2022-10-10T04:57:18.398Z,51.44
2022-10-10T04:58:36.265Z,51.18
2022-10-10T04:59:54.147Z,51.28
2022-10-10T05:01:12.343Z,50.90
2022-10-10T05:02:30.177Z,50.99
2022-10-10T05:03:48.527Z,51.21
2022-10-10T05:05:06.409Z,51.21
2022-10-10T05:06:24.279Z,51.46
2022-10-10T05:07:42.129Z,51.24
2022-10-10T05:09:00.046Z,51.53
2022-10-10T05:10:17.869Z,50.84
2022-10-10T05:11:35.711Z,50.79
2022-10-10T05:12:53.965Z,50.56
2022-10-10T05:14:12.805Z,51.36
2022-10-10T05:15:30.708Z,51.03
2022-10-10T05:16:48.800Z,51.19
2022-10-10T05:18:06.664Z,51.48
2022-10-10T05:19:23.103Z,51.85
2022-10-10T05:20:41.727Z,51.62
2022-10-10T05:21:59.593Z,51.70
2022-10-10T05:23:17.952Z,51.80
2022-10-10T05:24:35.272Z,51.32
2022-10-10T05:25:52.631Z,51.82
2022-10-10T05:27:10.800Z,51.16
2022-10-10T05:28:28.701Z,51.42
2022-10-10T05:29:46.109Z,51.47
2022-10-10T05:31:03.945Z,51.68
2022-10-10T05:32:21.834Z,51.40
2022-10-10T05:33:39.224Z,51.65
2022-10-10T05:34:56.562Z,51.96
2022-10-10T05:36:13.895Z,52.30
2022-10-10T05:37:31.934Z,51.92
2022-10-10T05:38:49.859Z,51.55
2022-10-10T05:40:07.707Z,51.73
2022-10-10T05:41:26.499Z,51.57
2022-10-10T05:42:44.398Z,52.20
2022-10-10T05:44:02.237Z,51.68
2022-10-10T05:45:18.741Z,51.58
2022-10-10T05:46:36.600Z,51.89
2022-10-10T05:47:54.499Z,51.94
2022-10-10T05:49:12.603Z,52.06
2022-10-10T05:50:30.472Z,52.09
2022-10-10T05:51:46.892Z,52.15
2022-10-10T05:53:04.879Z,52.54
2022-10-10T05:54:22.709Z,52.28
2022-10-10T05:55:40.591Z,52.30
2022-10-10T05:56:58.431Z,52.04
2022-10-10T05:58:15.830Z,52.00
2022-10-10T05:59:33.691Z,52.23
2022-10-10T06:00:52.358Z,52.22
2022-10-10T06:02:10.722Z,51.98
2022-10-10T06:03:28.612Z,52.13
2022-10-10T06:04:46.982Z,51.93
2022-10-10T06:06:07.024Z,52.03
2022-10-10T06:07:32.239Z,52.15
2022-10-10T06:08:49.143Z,51.35
2022-10-10T06:10:06.963Z,51.28
2022-10-10T06:11:24.827Z,51.16
2022-10-10T06:12:42.964Z,51.09
2022-10-10T06:14:00.854Z,51.32
2022-10-10T06:15:18.205Z,50.88
2022-10-10T06:16:36.104Z,51.08
2022-10-10T06:17:53.435Z,51.14
2022-10-10T06:19:14.821Z,51.24
2022-10-10T06:20:33.526Z,51.55
2022-10-10T06:21:50.417Z,51.13
2022-10-10T06:23:09.108Z,51.26
2022-10-10T06:24:27.691Z,50.60
2022-10-10T06:25:46.080Z,51.00
2022-10-10T06:27:04.476Z,50.62
2022-10-10T06:28:22.427Z,50.91
2022-10-10T06:29:40.251Z,50.71
2022-10-10T06:30:58.895Z,51.07
2022-10-10T06:32:17.305Z,50.55
2022-10-10T06:33:34.639Z,51.10
2022-10-10T06:34:52.018Z,51.39
2022-10-10T06:36:09.371Z,51.62
2022-10-10T06:37:26.769Z,51.29
2022-10-10T06:38:44.605Z,51.60
2022-10-10T06:40:03.844Z,51.66
2022-10-10T06:41:22.104Z,51.24
2022-10-10T06:42:40.745Z,50.92
2022-10-10T06:43:58.598Z,50.75
2022-10-10T06:45:16.501Z,50.83
2022-10-10T06:46:34.965Z,50.75
2022-10-10T06:47:52.843Z,51.14
2022-10-10T06:49:11.197Z,50.73
2022-10-10T06:50:29.044Z,50.77
2022-10-10T06:51:46.930Z,49.99
2022-10-10T06:53:04.814Z,50.27
2022-10-10T06:54:26.192Z,50.73
2022-10-10T06:55:47.566Z,50.48
2022-10-10T06:57:13.919Z,50.78
2022-10-10T06:58:34.693Z,50.52
2022-10-10T06:59:52.303Z,50.40
2022-10-10T07:01:12.569Z,50.36
2022-10-10T07:02:31.761Z,51.08
2022-10-10T07:03:49.735Z,50.63
2022-10-10T07:05:07.825Z,50.67
2022-10-10T07:06:25.255Z,50.72
2022-10-10T07:07:43.947Z,50.47
2022-10-10T07:09:00.422Z,50.49
2022-10-10T07:10:17.603Z,49.73
2022-10-10T07:11:35.989Z,49.75
2022-10-10T07:12:52.520Z,49.91
2022-10-10T07:14:10.190Z,49.81
2022-10-10T07:15:27.702Z,50.04
2022-10-10T07:16:45.840Z,49.52
2022-10-10T07:18:03.517Z,49.97
2022-10-10T07:19:22.421Z,49.69
2022-10-10T07:20:41.120Z,49.69
2022-10-10T07:23:51.983Z,49.82
2022-10-10T07:25:10.148Z,49.91
2022-10-10T07:26:27.075Z,49.57
2022-10-10T07:27:44.420Z,49.43
2022-10-10T07:29:01.795Z,49.77
2022-10-10T07:30:19.127Z,49.31
2022-10-10T07:31:39.449Z,49.00
2022-10-10T07:32:57.527Z,48.65
2022-10-10T07:34:15.493Z,48.87
2022-10-10T07:35:33.319Z,48.50
2022-10-10T07:36:50.759Z,48.51
2022-10-10T07:38:09.389Z,49.45
2022-10-10T07:39:26.842Z,49.38
2022-10-10T07:40:44.699Z,49.58
2022-10-10T07:42:02.582Z,49.34
2022-10-10T07:43:20.410Z,49.76
2022-10-10T07:44:37.783Z,49.48
2022-10-10T07:45:56.174Z,49.56
2022-10-10T07:47:13.474Z,48.97
2022-10-10T07:48:31.352Z,49.18
2022-10-10T07:49:48.761Z,49.04
2022-10-10T07:51:06.632Z,48.78
2022-10-10T07:52:24.482Z,48.64
2022-10-10T07:53:41.844Z,48.57
2022-10-10T07:54:59.743Z,48.10
2022-10-10T07:56:17.388Z,48.53
2022-10-10T07:57:35.242Z,48.51
2022-10-10T07:58:53.596Z,48.51
2022-10-10T08:00:11.472Z,48.12
2022-10-10T08:01:30.178Z,48.17
2022-10-10T08:02:48.089Z,48.14
2022-10-10T08:04:05.937Z,48.21
2022-10-10T08:05:24.317Z,47.93
2022-10-10T08:06:42.189Z,48.20
2022-10-10T08:08:00.049Z,48.05
2022-10-10T08:09:19.437Z,48.06
2022-10-10T08:10:36.781Z,48.31
2022-10-10T08:11:54.138Z,48.61
2022-10-10T08:13:12.538Z,48.42
2022-10-10T08:14:30.993Z,48.87
2022-10-10T08:15:48.839Z,48.12
2022-10-10T08:17:07.170Z,47.85
2022-10-10T08:18:25.842Z,47.90
2022-10-10T08:19:43.724Z,48.12
2022-10-10T08:21:01.079Z,47.94
2022-10-10T08:22:18.581Z,48.31
2022-10-10T08:23:36.417Z,47.93
2022-10-10T08:24:54.134Z,48.17
2022-10-10T08:26:11.994Z,47.90
2022-10-10T08:27:29.359Z,48.42
2022-10-10T08:28:49.180Z,47.98
2022-10-10T08:30:07.123Z,47.96
2022-10-10T08:31:25.017Z,47.79
2022-10-10T08:32:42.895Z,48.02
2022-10-10T08:34:01.275Z,48.85
2022-10-10T08:35:19.146Z,47.86
2022-10-10T08:36:37.209Z,48.41
2022-10-10T08:37:55.036Z,48.38
2022-10-10T08:39:12.420Z,49.15
2022-10-10T08:40:30.780Z,49.14
2022-10-10T08:41:48.948Z,49.02
2022-10-10T08:43:06.299Z,49.21
2022-10-10T08:44:24.728Z,49.40
2022-10-10T08:45:43.078Z,49.36
2022-10-10T08:47:03.064Z,49.85
2022-10-10T08:48:21.715Z,49.45
2022-10-10T08:49:40.095Z,49.49
2022-10-10T08:50:57.482Z,49.09
2022-10-10T08:52:17.191Z,48.81
2022-10-10T08:53:35.400Z,48.70
2022-10-10T08:54:58.292Z,48.71
2022-10-10T08:56:15.955Z,48.66
2022-10-10T08:57:33.407Z,48.42
2022-10-10T08:58:51.305Z,49.03
2022-10-10T09:00:16.317Z,48.95
2022-10-10T09:01:35.478Z,48.77
2022-10-10T09:02:57.240Z,49.17
2022-10-10T09:04:14.807Z,49.43
2022-10-10T09:05:33.388Z,49.55
2022-10-10T09:06:52.657Z,49.34
2022-10-10T09:08:12.962Z,49.14
2022-10-10T09:09:32.582Z,49.44
2022-10-10T09:10:52.859Z,49.33
2022-10-10T09:12:10.817Z,49.35
2022-10-10T09:13:32.686Z,49.23
2022-10-10T09:14:53.180Z,49.40
2022-10-10T09:16:12.391Z,49.84
2022-10-10T09:18:53.660Z,49.36
2022-10-10T09:20:17.612Z,49.52
2022-10-10T09:21:37.808Z,49.67
2022-10-10T09:23:02.032Z,49.53
2022-10-10T09:24:22.930Z,49.24
2022-10-10T09:25:53.913Z,49.13
2022-10-10T09:27:13.975Z,49.46
2022-10-10T09:28:37.733Z,48.98
2022-10-10T09:29:58.850Z,48.85
2022-10-10T09:31:16.626Z,48.87
2022-10-10T09:34:29.384Z,48.93
2022-10-10T09:37:47.285Z,48.59
2022-10-10T09:39:04.910Z,48.01
2022-10-10T09:40:23.919Z,48.69
2022-10-10T09:41:41.491Z,49.01
2022-10-10T09:43:10.867Z,48.99
2022-10-10T09:44:31.985Z,49.02
2022-10-10T09:47:41.456Z,48.16
2022-10-10T09:49:06.387Z,48.23
2022-10-10T09:50:30.078Z,47.97
2022-10-10T09:51:48.389Z,48.83
2022-10-10T09:53:06.314Z,48.45
2022-10-10T09:54:27.407Z,48.89
2022-10-10T09:55:51.273Z,48.72
2022-10-10T09:57:13.235Z,48.19
2022-10-10T09:58:30.814Z,48.82
2022-10-10T09:59:49.373Z,48.75
2022-10-10T10:01:09.122Z,49.26
2022-10-10T10:02:31.919Z,49.29
2022-10-10T10:05:46.409Z,49.36
2022-10-10T10:07:06.177Z,49.41
2022-10-10T10:08:24.141Z,48.99
2022-10-10T10:09:50.538Z,49.03
2022-10-10T10:11:12.404Z,48.70
2022-10-10T10:12:36.788Z,49.17
2022-10-10T10:13:53.395Z,48.60
2022-10-10T10:15:11.995Z,48.98
2022-10-10T10:18:20.828Z,48.51
2022-10-10T10:19:39.375Z,48.48
2022-10-10T10:20:58.477Z,48.49
2022-10-10T10:22:26.381Z,48.54
2022-10-10T10:23:47.330Z,48.45
2022-10-10T10:25:07.677Z,48.55
2022-10-10T10:26:31.276Z,48.15
2022-10-10T10:27:51.608Z,48.35
2022-10-10T10:29:15.653Z,48.32
2022-10-10T10:30:43.072Z,48.17
2022-10-10T10:32:00.412Z,48.36
2022-10-10T10:33:18.282Z,48.12
2022-10-10T10:34:36.169Z,47.68
2022-10-10T10:35:53.774Z,47.43
2022-10-10T10:37:14.863Z,46.77
2022-10-10T10:38:32.967Z,47.78
2022-10-10T10:39:51.732Z,47.85
2022-10-10T10:41:10.868Z,47.53
2022-10-10T10:42:29.217Z,47.18
2022-10-10T10:43:47.072Z,47.31
2022-10-10T10:45:04.515Z,47.79
2022-10-10T10:46:20.997Z,47.38
2022-10-10T10:47:38.312Z,47.43
2022-10-10T10:48:56.140Z,47.24
2022-10-10T10:50:14.444Z,47.14
2022-10-10T10:51:34.405Z,47.19
2022-10-10T10:52:52.161Z,48.02
2022-10-10T10:54:10.064Z,47.34
2022-10-10T10:55:29.113Z,47.63
2022-10-10T10:56:48.093Z,46.80
2022-10-10T10:58:48.828Z,47.43
2022-10-10T11:00:22.180Z,47.17
2022-10-10T11:01:33.698Z,47.52
2022-10-10T11:02:26.265Z,47.25
2022-10-10T11:05:20.537Z,47.52
2022-10-10T11:05:22.032Z,47.32
2022-10-10T11:06:24.564Z,47.71
2022-10-10T11:07:45.602Z,47.50
2022-10-10T11:09:04.084Z,46.89
2022-10-10T11:10:22.923Z,47.26
2022-10-10T11:11:41.512Z,47.51
2022-10-10T11:12:58.914Z,47.33
2022-10-10T11:14:17.775Z,47.40
2022-10-10T11:16:01.205Z,47.66
2022-10-10T11:16:57.602Z,47.94
2022-10-10T11:18:15.969Z,47.51
2022-10-10T11:19:35.302Z,47.62
2022-10-10T11:20:52.779Z,47.81
2022-10-10T11:22:11.224Z,47.49
2022-10-10T11:23:29.748Z,47.44
2022-10-10T11:24:47.674Z,47.42
2022-10-10T11:26:06.858Z,47.35
2022-10-10T11:27:23.472Z,47.61
2022-10-10T11:28:40.578Z,47.94
2022-10-10T11:30:00.710Z,47.22
2022-10-10T11:31:18.741Z,47.26
2022-10-10T11:34:26.706Z,46.97
2022-10-10T11:35:44.576Z,47.58
2022-10-10T11:37:01.177Z,47.35
2022-10-10T11:38:18.891Z,47.21
2022-10-10T11:39:36.465Z,47.13
2022-10-10T11:40:57.963Z,47.75
2022-10-10T11:42:15.744Z,47.63
2022-10-10T11:43:33.328Z,48.46
2022-10-10T11:44:51.424Z,48.41
2022-10-10T11:46:09.044Z,48.61
2022-10-10T11:47:27.996Z,49.08
2022-10-10T11:48:46.874Z,48.72
2022-10-10T11:50:08.298Z,48.79
2022-10-10T11:51:29.497Z,47.82
2022-10-10T11:52:47.205Z,48.30
2022-10-10T11:54:03.764Z,48.58
2022-10-10T11:55:21.648Z,48.27
2022-10-10T11:56:39.566Z,48.66
2022-10-10T11:58:02.692Z,48.59
2022-10-10T11:59:20.196Z,48.89
2022-10-10T12:00:37.678Z,48.45
2022-10-10T12:01:55.118Z,48.75
2022-10-10T12:03:12.747Z,47.86
2022-10-10T12:04:36.325Z,48.49
2022-10-10T12:05:54.320Z,48.26
2022-10-10T12:07:12.959Z,48.23
2022-10-10T12:25:57.705Z,47.92
2022-10-10T12:31:12.607Z,47.91
2022-10-10T12:53:19.273Z,47.30
2022-10-10T13:01:04.643Z,47.75
2022-10-10T13:04:29.928Z,48.21
2022-10-10T13:13:23.029Z,47.30
2022-10-10T13:20:17.019Z,47.38
2022-10-10T13:26:57.022Z,47.22
2022-10-10T13:32:53.653Z,47.34
2022-10-10T13:36:10.574Z,46.73
2022-10-10T13:43:38.599Z,46.92
2022-10-10T13:57:02.657Z,45.28
2022-10-10T13:59:55.964Z,45.39
2022-10-10T14:56:16.129Z,43.44
2022-10-10T17:01:22.117Z,21.11
2022-10-10T19:36:28.764Z,-7.69
